OHFUK PHNL-PHTO
Flight info
| Callsign | OHFUK |
|---|---|
| Flight time | 0h 56m |
| Altitude | 8000 |
| Route | KEAHI3 LNY V16 UPP V2 ITO |
| Aircraft | PC12/L-SDFGRWY/S |
Departure
| Time | 2026-04-20 01:35 |
|---|---|
| Airport | Daniel K. Inouye International Airport (PHNL) |
Arrival
| Time | 2026-04-20 02:31 |
|---|---|
| Airport | Hilo International Airport (PHTO) |
| Time | Latitude | Longitude | Altitude | Speed | Heading |
|---|---|---|---|---|---|
| 2026-04-20 01:19 | 21.32300 | -157.91108 | 12 ft | 0 kts | 58° |
| 2026-04-20 01:32 | 21.32304 | -157.91103 | 12 ft | 4 kts | 26° |
| 2026-04-20 01:33 | 21.32353 | -157.91144 | 12 ft | 7 kts | 288° |
| 2026-04-20 01:33 | 21.32376 | -157.91187 | 12 ft | 9 kts | 308° |
| 2026-04-20 01:33 | 21.32415 | -157.91256 | 10 ft | 13 kts | 267° |
| 2026-04-20 01:33 | 21.32301 | -157.91431 | 8 ft | 55 kts | 233° |
| 2026-04-20 01:34 | 21.31979 | -157.91881 | 35 ft | 90 kts | 234° |
| 2026-04-20 01:34 | 21.31616 | -157.92477 | 200 ft | 98 kts | 233° |
| 2026-04-20 01:34 | 21.31176 | -157.93051 | 414 ft | 98 kts | 205° |
| 2026-04-20 01:34 | 21.30460 | -157.93211 | 565 ft | 114 kts | 182° |
| 2026-04-20 01:35 | 21.29669 | -157.93326 | 814 ft | 123 kts | 187° |
| 2026-04-20 01:35 | 21.28795 | -157.93487 | 1098 ft | 130 kts | 184° |
| 2026-04-20 01:35 | 21.27893 | -157.93587 | 1425 ft | 131 kts | 169° |
| 2026-04-20 01:35 | 21.27057 | -157.93145 | 1678 ft | 140 kts | 141° |
| 2026-04-20 01:36 | 21.26196 | -157.92517 | 1931 ft | 155 kts | 141° |
| 2026-04-20 01:36 | 21.25284 | -157.91833 | 2288 ft | 166 kts | 142° |
| 2026-04-20 01:36 | 21.24317 | -157.91087 | 2642 ft | 177 kts | 141° |
| 2026-04-20 01:36 | 21.23299 | -157.90285 | 2990 ft | 187 kts | 142° |
| 2026-04-20 01:37 | 21.22237 | -157.89435 | 3339 ft | 194 kts | 142° |
| 2026-04-20 01:37 | 21.21139 | -157.88547 | 3679 ft | 201 kts | 142° |
| 2026-04-20 01:37 | 21.20017 | -157.87629 | 4018 ft | 205 kts | 141° |
| 2026-04-20 01:37 | 21.18880 | -157.86693 | 4361 ft | 207 kts | 141° |
| 2026-04-20 01:38 | 21.17741 | -157.85748 | 4707 ft | 207 kts | 142° |
| 2026-04-20 01:38 | 21.16464 | -157.85062 | 5045 ft | 205 kts | 151° |
| 2026-04-20 01:38 | 21.15275 | -157.84218 | 5380 ft | 205 kts | 142° |
| 2026-04-20 01:38 | 21.14106 | -157.83327 | 5718 ft | 207 kts | 144° |
| 2026-04-20 01:39 | 21.12881 | -157.82489 | 5992 ft | 212 kts | 147° |
| 2026-04-20 01:39 | 21.11616 | -157.81658 | 6238 ft | 215 kts | 147° |
| 2026-04-20 01:39 | 21.10352 | -157.80820 | 6480 ft | 217 kts | 147° |
| 2026-04-20 01:39 | 21.09065 | -157.79959 | 6713 ft | 219 kts | 147° |
| 2026-04-20 01:40 | 21.07766 | -157.79091 | 6947 ft | 221 kts | 147° |
| 2026-04-20 01:40 | 21.06461 | -157.78220 | 7181 ft | 222 kts | 147° |
| 2026-04-20 01:40 | 21.05149 | -157.77345 | 7416 ft | 223 kts | 147° |
| 2026-04-20 01:40 | 21.03835 | -157.76468 | 7653 ft | 223 kts | 147° |
| 2026-04-20 01:41 | 21.02518 | -157.75589 | 7892 ft | 223 kts | 147° |
| 2026-04-20 01:41 | 21.01186 | -157.74700 | 7985 ft | 230 kts | 147° |
| 2026-04-20 01:41 | 20.99798 | -157.73775 | 7977 ft | 238 kts | 147° |
| 2026-04-20 01:41 | 20.98376 | -157.72828 | 7981 ft | 243 kts | 147° |
| 2026-04-20 01:42 | 20.96927 | -157.71862 | 7975 ft | 247 kts | 147° |
| 2026-04-20 01:42 | 20.95464 | -157.70888 | 7984 ft | 249 kts | 147° |
| 2026-04-20 01:42 | 20.93993 | -157.69908 | 7983 ft | 250 kts | 147° |
| 2026-04-20 01:42 | 20.92514 | -157.68922 | 7983 ft | 251 kts | 147° |
| 2026-04-20 01:43 | 20.91030 | -157.67934 | 7982 ft | 252 kts | 147° |
| 2026-04-20 01:43 | 20.89543 | -157.66944 | 7984 ft | 252 kts | 147° |
| 2026-04-20 01:43 | 20.88054 | -157.65952 | 7985 ft | 252 kts | 147° |
| 2026-04-20 01:43 | 20.86564 | -157.64960 | 7986 ft | 253 kts | 148° |
| 2026-04-20 01:44 | 20.85070 | -157.63967 | 7987 ft | 253 kts | 147° |
| 2026-04-20 01:44 | 20.83577 | -157.62973 | 7991 ft | 253 kts | 147° |
| 2026-04-20 01:44 | 20.82082 | -157.61979 | 7990 ft | 253 kts | 147° |
| 2026-04-20 01:44 | 20.80646 | -157.60912 | 7978 ft | 251 kts | 136° |
| 2026-04-20 01:45 | 20.79669 | -157.59383 | 7967 ft | 250 kts | 112° |
| 2026-04-20 01:45 | 20.79322 | -157.57577 | 7978 ft | 248 kts | 94° |
| 2026-04-20 01:45 | 20.79240 | -157.55732 | 7982 ft | 249 kts | 92° |
| 2026-04-20 01:45 | 20.79171 | -157.53883 | 7983 ft | 249 kts | 92° |
| 2026-04-20 01:46 | 20.79088 | -157.52029 | 7984 ft | 250 kts | 93° |
| 2026-04-20 01:46 | 20.78998 | -157.50173 | 7984 ft | 250 kts | 92° |
| 2026-04-20 01:46 | 20.78912 | -157.48356 | 7983 ft | 251 kts | 92° |
| 2026-04-20 01:46 | 20.78827 | -157.46497 | 7984 ft | 250 kts | 92° |
| 2026-04-20 01:47 | 20.78741 | -157.44639 | 7983 ft | 250 kts | 92° |
| 2026-04-20 01:47 | 20.78654 | -157.42781 | 7981 ft | 250 kts | 92° |
| 2026-04-20 01:47 | 20.78567 | -157.40922 | 7986 ft | 250 kts | 92° |
| 2026-04-20 01:47 | 20.78480 | -157.39063 | 7986 ft | 250 kts | 92° |
| 2026-04-20 01:48 | 20.78421 | -157.37808 | 7987 ft | 251 kts | 92° |
| 2026-04-20 01:48 | 20.78335 | -157.35970 | 7986 ft | 251 kts | 92° |
| 2026-04-20 01:48 | 20.78246 | -157.34087 | 7987 ft | 251 kts | 92° |
| 2026-04-20 01:48 | 20.78159 | -157.32254 | 7989 ft | 251 kts | 93° |
| 2026-04-20 01:49 | 20.78070 | -157.30371 | 7996 ft | 251 kts | 92° |
| 2026-04-20 01:49 | 20.77981 | -157.28509 | 7999 ft | 251 kts | 92° |
| 2026-04-20 01:49 | 20.77893 | -157.26649 | 8007 ft | 251 kts | 92° |
| 2026-04-20 01:49 | 20.77805 | -157.24814 | 8011 ft | 251 kts | 92° |
| 2026-04-20 01:50 | 20.77716 | -157.22950 | 8017 ft | 251 kts | 92° |
| 2026-04-20 01:50 | 20.77627 | -157.21091 | 8020 ft | 251 kts | 92° |
| 2026-04-20 01:50 | 20.77538 | -157.19232 | 8024 ft | 251 kts | 92° |
| 2026-04-20 01:50 | 20.77448 | -157.17372 | 8024 ft | 251 kts | 92° |
| 2026-04-20 01:51 | 20.77359 | -157.15512 | 8036 ft | 251 kts | 92° |
| 2026-04-20 01:51 | 20.77269 | -157.13650 | 8042 ft | 251 kts | 92° |
| 2026-04-20 01:51 | 20.77178 | -157.11789 | 8045 ft | 251 kts | 92° |
| 2026-04-20 01:51 | 20.77088 | -157.09927 | 8042 ft | 251 kts | 92° |
| 2026-04-20 01:52 | 20.76997 | -157.08067 | 8053 ft | 251 kts | 92° |
| 2026-04-20 01:52 | 20.76906 | -157.06206 | 8058 ft | 251 kts | 92° |
| 2026-04-20 01:52 | 20.76816 | -157.04346 | 8063 ft | 251 kts | 92° |
| 2026-04-20 01:52 | 20.76724 | -157.02484 | 8063 ft | 251 kts | 92° |
| 2026-04-20 01:53 | 20.76633 | -157.00623 | 8061 ft | 251 kts | 92° |
| 2026-04-20 01:53 | 20.76541 | -156.98765 | 8063 ft | 251 kts | 92° |
| 2026-04-20 01:53 | 20.76358 | -156.96918 | 8061 ft | 251 kts | 104° |
| 2026-04-20 01:53 | 20.75652 | -156.95238 | 8061 ft | 246 kts | 117° |
| 2026-04-20 01:54 | 20.74841 | -156.93636 | 8062 ft | 245 kts | 118° |
| 2026-04-20 01:54 | 20.74033 | -156.92033 | 8064 ft | 245 kts | 117° |
| 2026-04-20 01:54 | 20.73239 | -156.90429 | 8061 ft | 244 kts | 117° |
| 2026-04-20 01:54 | 20.72450 | -156.88832 | 8062 ft | 242 kts | 117° |
| 2026-04-20 01:55 | 20.71662 | -156.87245 | 8058 ft | 242 kts | 117° |
| 2026-04-20 01:55 | 20.70875 | -156.85663 | 8053 ft | 241 kts | 117° |
| 2026-04-20 01:55 | 20.70088 | -156.84081 | 8049 ft | 241 kts | 117° |
| 2026-04-20 01:55 | 20.69305 | -156.82504 | 8041 ft | 241 kts | 117° |
| 2026-04-20 01:56 | 20.68521 | -156.80928 | 8040 ft | 240 kts | 117° |
| 2026-04-20 01:56 | 20.67738 | -156.79353 | 8036 ft | 240 kts | 117° |
| 2026-04-20 01:56 | 20.66956 | -156.77782 | 8031 ft | 239 kts | 117° |
| 2026-04-20 01:56 | 20.66174 | -156.76212 | 8026 ft | 239 kts | 117° |
| 2026-04-20 01:57 | 20.65404 | -156.74665 | 8023 ft | 239 kts | 117° |
| 2026-04-20 01:57 | 20.64623 | -156.73096 | 8009 ft | 239 kts | 117° |
| 2026-04-20 01:57 | 20.63841 | -156.71527 | 8008 ft | 239 kts | 117° |
| 2026-04-20 01:57 | 20.63057 | -156.69954 | 8006 ft | 240 kts | 117° |
| 2026-04-20 01:58 | 20.62271 | -156.68377 | 8000 ft | 241 kts | 117° |
| 2026-04-20 01:58 | 20.61482 | -156.66795 | 7997 ft | 242 kts | 117° |
| 2026-04-20 01:58 | 20.60691 | -156.65210 | 7987 ft | 242 kts | 117° |
| 2026-04-20 01:58 | 20.59900 | -156.63624 | 7982 ft | 242 kts | 117° |
| 2026-04-20 01:59 | 20.59111 | -156.62041 | 7984 ft | 242 kts | 117° |
| 2026-04-20 01:59 | 20.58319 | -156.60455 | 7984 ft | 242 kts | 117° |
| 2026-04-20 01:59 | 20.57524 | -156.58864 | 7986 ft | 243 kts | 117° |
| 2026-04-20 01:59 | 20.56730 | -156.57274 | 7977 ft | 243 kts | 116° |
| 2026-04-20 02:00 | 20.55935 | -156.55683 | 7981 ft | 243 kts | 116° |
| 2026-04-20 02:00 | 20.55141 | -156.54094 | 7987 ft | 243 kts | 117° |
| 2026-04-20 02:00 | 20.54346 | -156.52503 | 7986 ft | 242 kts | 117° |
| 2026-04-20 02:00 | 20.53554 | -156.50917 | 7980 ft | 242 kts | 117° |
| 2026-04-20 02:01 | 20.52761 | -156.49333 | 7987 ft | 242 kts | 117° |
| 2026-04-20 02:01 | 20.51967 | -156.47749 | 7982 ft | 242 kts | 116° |
| 2026-04-20 02:01 | 20.51178 | -156.46171 | 7987 ft | 241 kts | 117° |
| 2026-04-20 02:01 | 20.50389 | -156.44594 | 7980 ft | 241 kts | 116° |
| 2026-04-20 02:02 | 20.49602 | -156.43021 | 7974 ft | 240 kts | 116° |
| 2026-04-20 02:02 | 20.48815 | -156.41449 | 7981 ft | 240 kts | 116° |
| 2026-04-20 02:02 | 20.48028 | -156.39881 | 7980 ft | 240 kts | 117° |
| 2026-04-20 02:02 | 20.47252 | -156.38332 | 7976 ft | 240 kts | 116° |
| 2026-04-20 02:03 | 20.46466 | -156.36763 | 7975 ft | 240 kts | 116° |
| 2026-04-20 02:03 | 20.45680 | -156.35197 | 7979 ft | 240 kts | 116° |
| 2026-04-20 02:03 | 20.44894 | -156.33629 | 7984 ft | 239 kts | 116° |
| 2026-04-20 02:03 | 20.44109 | -156.32064 | 7980 ft | 239 kts | 116° |
| 2026-04-20 02:04 | 20.43325 | -156.30500 | 7982 ft | 239 kts | 117° |
| 2026-04-20 02:04 | 20.42539 | -156.28936 | 7978 ft | 239 kts | 117° |
| 2026-04-20 02:04 | 20.41754 | -156.27372 | 7978 ft | 239 kts | 116° |
| 2026-04-20 02:04 | 20.40969 | -156.25809 | 7979 ft | 239 kts | 116° |
| 2026-04-20 02:05 | 20.40183 | -156.24245 | 7976 ft | 239 kts | 117° |
| 2026-04-20 02:05 | 20.39398 | -156.22684 | 7983 ft | 239 kts | 117° |
| 2026-04-20 02:05 | 20.38614 | -156.21124 | 7974 ft | 239 kts | 117° |
| 2026-04-20 02:05 | 20.37829 | -156.19562 | 7981 ft | 239 kts | 117° |
| 2026-04-20 02:06 | 20.37042 | -156.17999 | 7975 ft | 239 kts | 117° |
| 2026-04-20 02:06 | 20.36257 | -156.16438 | 7974 ft | 239 kts | 117° |
| 2026-04-20 02:06 | 20.35481 | -156.14898 | 7981 ft | 239 kts | 117° |
| 2026-04-20 02:06 | 20.34697 | -156.13340 | 7982 ft | 239 kts | 117° |
| 2026-04-20 02:07 | 20.33913 | -156.11781 | 7978 ft | 239 kts | 117° |
| 2026-04-20 02:07 | 20.33127 | -156.10221 | 7974 ft | 239 kts | 117° |
| 2026-04-20 02:07 | 20.32341 | -156.08662 | 7970 ft | 239 kts | 117° |
| 2026-04-20 02:07 | 20.31556 | -156.07103 | 7978 ft | 239 kts | 117° |
| 2026-04-20 02:08 | 20.30771 | -156.05547 | 7971 ft | 239 kts | 117° |
| 2026-04-20 02:08 | 20.29985 | -156.03988 | 7978 ft | 239 kts | 117° |
| 2026-04-20 02:08 | 20.29200 | -156.02433 | 7971 ft | 238 kts | 117° |
| 2026-04-20 02:08 | 20.28416 | -156.00878 | 7977 ft | 238 kts | 117° |
| 2026-04-20 02:09 | 20.27631 | -155.99321 | 7978 ft | 238 kts | 117° |
| 2026-04-20 02:09 | 20.26847 | -155.97769 | 7979 ft | 238 kts | 117° |
| 2026-04-20 02:09 | 20.26062 | -155.96215 | 7978 ft | 238 kts | 117° |
| 2026-04-20 02:09 | 20.25278 | -155.94662 | 7977 ft | 238 kts | 117° |
| 2026-04-20 02:10 | 20.24492 | -155.93106 | 7979 ft | 239 kts | 117° |
| 2026-04-20 02:10 | 20.23705 | -155.91550 | 7980 ft | 239 kts | 117° |
| 2026-04-20 02:10 | 20.22920 | -155.89996 | 7981 ft | 239 kts | 117° |
| 2026-04-20 02:10 | 20.22133 | -155.88438 | 7977 ft | 239 kts | 117° |
| 2026-04-20 02:11 | 20.21344 | -155.86879 | 7978 ft | 239 kts | 118° |
| 2026-04-20 02:11 | 20.20556 | -155.85321 | 7979 ft | 239 kts | 117° |
| 2026-04-20 02:11 | 20.20020 | -155.83671 | 7972 ft | 236 kts | 96° |
| 2026-04-20 02:11 | 20.19918 | -155.81935 | 7975 ft | 236 kts | 92° |
| 2026-04-20 02:12 | 20.19847 | -155.80187 | 7975 ft | 237 kts | 92° |
| 2026-04-20 02:12 | 20.19764 | -155.78435 | 7976 ft | 237 kts | 93° |
| 2026-04-20 02:12 | 20.19673 | -155.76678 | 7978 ft | 237 kts | 93° |
| 2026-04-20 02:12 | 20.19584 | -155.74921 | 7977 ft | 238 kts | 93° |
| 2026-04-20 02:13 | 20.19496 | -155.73163 | 7982 ft | 238 kts | 93° |
| 2026-04-20 02:13 | 20.19408 | -155.71407 | 7982 ft | 238 kts | 93° |
| 2026-04-20 02:13 | 20.19320 | -155.69650 | 7982 ft | 238 kts | 93° |
| 2026-04-20 02:13 | 20.19232 | -155.67895 | 7984 ft | 237 kts | 93° |
| 2026-04-20 02:14 | 20.19143 | -155.66142 | 7984 ft | 237 kts | 93° |
| 2026-04-20 02:14 | 20.19054 | -155.64388 | 7987 ft | 237 kts | 93° |
| 2026-04-20 02:14 | 20.18965 | -155.62632 | 7987 ft | 238 kts | 93° |
| 2026-04-20 02:14 | 20.18876 | -155.60876 | 7987 ft | 238 kts | 93° |
| 2026-04-20 02:15 | 20.18788 | -155.59141 | 7987 ft | 238 kts | 93° |
| 2026-04-20 02:15 | 20.18698 | -155.57384 | 7993 ft | 238 kts | 93° |
| 2026-04-20 02:15 | 20.18608 | -155.55627 | 7992 ft | 238 kts | 93° |
| 2026-04-20 02:15 | 20.18518 | -155.53867 | 7986 ft | 238 kts | 93° |
| 2026-04-20 02:16 | 20.18428 | -155.52110 | 7993 ft | 238 kts | 93° |
| 2026-04-20 02:16 | 20.18338 | -155.50349 | 7991 ft | 238 kts | 93° |
| 2026-04-20 02:16 | 20.18247 | -155.48588 | 7992 ft | 239 kts | 93° |
| 2026-04-20 02:16 | 20.18156 | -155.46823 | 7992 ft | 239 kts | 93° |
| 2026-04-20 02:17 | 20.18065 | -155.45060 | 7990 ft | 239 kts | 93° |
| 2026-04-20 02:17 | 20.17973 | -155.43297 | 7991 ft | 239 kts | 93° |
| 2026-04-20 02:17 | 20.17882 | -155.41532 | 7994 ft | 239 kts | 93° |
| 2026-04-20 02:17 | 20.17790 | -155.39767 | 7994 ft | 239 kts | 93° |
| 2026-04-20 02:18 | 20.17698 | -155.38003 | 7989 ft | 239 kts | 93° |
| 2026-04-20 02:18 | 20.17605 | -155.36236 | 7993 ft | 239 kts | 93° |
| 2026-04-20 02:18 | 20.17513 | -155.34470 | 7995 ft | 239 kts | 93° |
| 2026-04-20 02:18 | 20.17420 | -155.32707 | 7993 ft | 239 kts | 93° |
| 2026-04-20 02:19 | 20.17327 | -155.30943 | 7991 ft | 239 kts | 93° |
| 2026-04-20 02:19 | 20.17234 | -155.29180 | 7991 ft | 239 kts | 93° |
| 2026-04-20 02:19 | 20.17141 | -155.27415 | 7993 ft | 239 kts | 93° |
| 2026-04-20 02:19 | 20.17048 | -155.25650 | 7992 ft | 239 kts | 93° |
| 2026-04-20 02:20 | 20.16890 | -155.23897 | 7984 ft | 237 kts | 103° |
| 2026-04-20 02:20 | 20.16157 | -155.22336 | 7991 ft | 238 kts | 128° |
| 2026-04-20 02:20 | 20.14868 | -155.21243 | 7985 ft | 238 kts | 153° |
| 2026-04-20 02:20 | 20.13359 | -155.20514 | 7997 ft | 239 kts | 156° |
| 2026-04-20 02:21 | 20.10307 | -155.19098 | 7996 ft | 240 kts | 156° |
| 2026-04-20 02:21 | 20.08782 | -155.18374 | 7979 ft | 241 kts | 155° |
| 2026-04-20 02:21 | 20.07234 | -155.17640 | 7736 ft | 243 kts | 156° |
| 2026-04-20 02:22 | 20.05705 | -155.16919 | 7497 ft | 238 kts | 156° |
| 2026-04-20 02:22 | 20.04206 | -155.16212 | 7255 ft | 234 kts | 156° |
| 2026-04-20 02:22 | 20.02729 | -155.15514 | 7024 ft | 231 kts | 156° |
| 2026-04-20 02:22 | 20.01262 | -155.14821 | 6794 ft | 230 kts | 156° |
| 2026-04-20 02:23 | 19.99805 | -155.14133 | 6562 ft | 229 kts | 156° |
| 2026-04-20 02:23 | 19.98350 | -155.13446 | 6322 ft | 228 kts | 156° |
| 2026-04-20 02:23 | 19.96940 | -155.12783 | 6007 ft | 213 kts | 156° |
| 2026-04-20 02:23 | 19.95623 | -155.12162 | 5638 ft | 201 kts | 155° |
| 2026-04-20 02:24 | 19.94377 | -155.11573 | 5269 ft | 191 kts | 155° |
| 2026-04-20 02:24 | 19.93186 | -155.11010 | 4910 ft | 184 kts | 154° |
| 2026-04-20 02:24 | 19.92036 | -155.10467 | 4543 ft | 178 kts | 155° |
| 2026-04-20 02:24 | 19.90910 | -155.09936 | 4177 ft | 177 kts | 154° |
| 2026-04-20 02:25 | 19.89791 | -155.09408 | 3811 ft | 175 kts | 154° |
| 2026-04-20 02:25 | 19.88717 | -155.08903 | 3566 ft | 162 kts | 153° |
| 2026-04-20 02:25 | 19.87714 | -155.08430 | 3319 ft | 154 kts | 153° |
| 2026-04-20 02:25 | 19.86753 | -155.07977 | 3068 ft | 148 kts | 153° |
| 2026-04-20 02:26 | 19.85826 | -155.07540 | 2826 ft | 144 kts | 152° |
| 2026-04-20 02:26 | 19.84904 | -155.07104 | 2590 ft | 146 kts | 153° |
| 2026-04-20 02:26 | 19.83975 | -155.06665 | 2387 ft | 145 kts | 153° |
| 2026-04-20 02:26 | 19.83048 | -155.06244 | 2194 ft | 146 kts | 154° |
| 2026-04-20 02:27 | 19.82066 | -155.05916 | 1966 ft | 149 kts | 163° |
| 2026-04-20 02:27 | 19.81089 | -155.05634 | 1815 ft | 142 kts | 152° |
| 2026-04-20 02:27 | 19.80246 | -155.05082 | 1512 ft | 143 kts | 135° |
| 2026-04-20 02:27 | 19.79586 | -155.04296 | 1249 ft | 143 kts | 125° |
| 2026-04-20 02:28 | 19.79014 | -155.03509 | 1280 ft | 125 kts | 134° |
| 2026-04-20 02:28 | 19.78342 | -155.03096 | 1367 ft | 103 kts | 146° |
| 2026-04-20 02:28 | 19.77686 | -155.02773 | 1249 ft | 101 kts | 149° |
| 2026-04-20 02:28 | 19.77036 | -155.02574 | 1166 ft | 99 kts | 171° |
| 2026-04-20 02:29 | 19.76345 | -155.02555 | 991 ft | 98 kts | 171° |
| 2026-04-20 02:29 | 19.75679 | -155.02664 | 835 ft | 97 kts | 196° |
| 2026-04-20 02:29 | 19.75072 | -155.03039 | 691 ft | 106 kts | 204° |
| 2026-04-20 02:29 | 19.74432 | -155.03461 | 578 ft | 111 kts | 210° |
| 2026-04-20 02:30 | 19.73800 | -155.03949 | 497 ft | 114 kts | 212° |
| 2026-04-20 02:30 | 19.73171 | -155.04508 | 328 ft | 119 kts | 216° |
| 2026-04-20 02:30 | 19.72569 | -155.05051 | 122 ft | 109 kts | 212° |
| 2026-04-20 02:30 | 19.72032 | -155.05540 | 37 ft | 91 kts | 215° |
| 2026-04-20 02:31 | 19.71715 | -155.05827 | 35 ft | 27 kts | 222° |
| 2026-04-20 02:31 | 19.71718 | -155.05903 | 36 ft | 10 kts | 315° |
| 2026-04-20 02:31 | 19.71785 | -155.05872 | 36 ft | 14 kts | 38° |
| 2026-04-20 02:31 | 19.71879 | -155.05812 | 35 ft | 16 kts | 46° |
| 2026-04-20 02:32 | 19.71943 | -155.05813 | 34 ft | 13 kts | 259° |
| 2026-04-20 02:32 | 19.71949 | -155.05862 | 34 ft | 1 kts | 359° |
| 2026-04-20 02:32 | 19.71957 | -155.05859 | 33 ft | 1 kts | 21° |
| 2026-04-20 02:32 | 19.71959 | -155.05859 | 33 ft | 1 kts | 11° |